New Orleans, Louisiana
Traffic Map
Current Weather Conditions
New Orleans, Louisiana
Broken Clouds
Broken Clouds
80°
Feels Like: 85°
Wind Chill: 80° Ceiling: 3900
Heat Index: 85° Visibility: 9mi
Dew Point: 75° Wind: 20mph
Humidity: 85% Direction: 110° (ESE)
Pressure: 30.01in Gusts: 26mph
Raw Report DataKNEW 212105Z 11017G23KT 9SM FEW023 SCT031 BKN039 27/24 A3001 RMK AO2 T02670239
Traffic Incident Summary
Active as of:
Severity:
Category:
InformationThere was an issue retrieving the traffic information for this location. Please try a different location or try again shortly.
Advertisements